createdAt,value
2022-09-21T00:00:30.766Z,7.20
2022-09-21T00:03:42.423Z,7.20
2022-09-21T00:06:51.353Z,7.18
2022-09-21T00:10:00.290Z,7.10
2022-09-21T00:13:09.187Z,7.10
2022-09-21T00:16:19.132Z,7.10
2022-09-21T00:19:33.137Z,7.10
2022-09-21T00:22:42.286Z,7.10
2022-09-21T00:25:51.098Z,7.10
2022-09-21T00:29:01.960Z,7.10
2022-09-21T00:32:10.609Z,7.04
2022-09-21T00:35:19.098Z,7.02
2022-09-21T00:38:27.302Z,7.00
2022-09-21T00:41:37.935Z,7.00
2022-09-21T00:44:46.178Z,7.00
2022-09-21T00:47:57.592Z,7.00
2022-09-21T00:51:10.816Z,7.00
2022-09-21T00:54:24.892Z,7.10
2022-09-21T00:57:36.384Z,7.10
2022-09-21T01:00:45.283Z,7.10
2022-09-21T01:03:57.588Z,7.10
2022-09-21T01:07:13.095Z,7.10
2022-09-21T01:10:23.228Z,7.10
2022-09-21T01:13:49.341Z,7.10
2022-09-21T01:17:08.679Z,7.10
2022-09-21T01:21:00.622Z,7.10
2022-09-21T01:24:42.664Z,7.10
2022-09-21T01:28:08.606Z,7.18
2022-09-21T01:31:28.115Z,7.12
2022-09-21T01:34:44.473Z,7.20
2022-09-21T01:37:58.436Z,7.20
2022-09-21T01:41:11.362Z,7.20
2022-09-21T01:44:24.597Z,7.20
2022-09-21T01:47:33.953Z,7.20
2022-09-21T01:50:50.108Z,7.12
2022-09-21T01:54:05.810Z,7.10
2022-09-21T01:57:23.509Z,7.08
2022-09-21T02:00:34.478Z,7.00
2022-09-21T02:03:48.191Z,7.00
2022-09-21T02:06:57.817Z,7.00
2022-09-21T02:10:09.689Z,6.98
2022-09-21T02:13:19.210Z,6.90
2022-09-21T02:16:40.297Z,6.90
2022-09-21T02:19:57.330Z,6.90
2022-09-21T02:23:16.215Z,6.90
2022-09-21T02:26:32.239Z,6.90
2022-09-21T02:29:52.088Z,6.82
2022-09-21T02:33:11.794Z,6.80
2022-09-21T02:36:33.117Z,6.70
2022-09-21T02:39:51.440Z,6.60
2022-09-21T02:43:05.113Z,6.50
2022-09-21T02:46:20.810Z,6.50
2022-09-21T02:49:35.759Z,6.48
2022-09-21T02:52:46.582Z,6.40
2022-09-21T02:55:58.354Z,6.40
2022-09-21T02:59:09.109Z,6.40
2022-09-21T03:02:16.934Z,6.38
2022-09-21T03:05:25.998Z,6.30
2022-09-21T03:08:33.766Z,6.30
2022-09-21T03:11:43.466Z,6.30
2022-09-21T03:14:51.907Z,6.30
2022-09-21T03:18:00.094Z,6.30
2022-09-21T03:21:08.253Z,6.30
2022-09-21T03:24:37.374Z,6.30
2022-09-21T03:27:45.402Z,6.30
2022-09-21T03:30:55.353Z,6.34
2022-09-21T03:34:01.602Z,6.40
2022-09-21T03:37:12.337Z,6.40
2022-09-21T03:40:20.870Z,6.40
2022-09-21T03:43:29.209Z,6.50
2022-09-21T03:46:37.303Z,6.50
2022-09-21T03:49:45.479Z,6.60
2022-09-21T03:52:53.478Z,6.60
2022-09-21T03:56:02.556Z,6.60
2022-09-21T03:59:13.894Z,6.70
2022-09-21T04:02:23.272Z,6.70
2022-09-21T04:05:31.666Z,6.70
2022-09-21T04:08:40.162Z,6.70
2022-09-21T04:11:50.762Z,6.70
2022-09-21T04:14:59.308Z,6.74
2022-09-21T04:18:08.304Z,6.76
2022-09-21T04:21:16.635Z,6.80
2022-09-21T04:24:24.827Z,6.74
2022-09-21T04:27:33.049Z,6.70
2022-09-21T04:30:41.178Z,6.70
2022-09-21T04:33:52.587Z,6.60
2022-09-21T04:37:00.529Z,6.60
2022-09-21T04:40:11.342Z,6.60
2022-09-21T04:43:22.567Z,6.60
2022-09-21T04:46:31.502Z,6.58
2022-09-21T04:49:39.743Z,6.50
2022-09-21T04:52:48.073Z,6.50
2022-09-21T04:55:56.555Z,6.50
2022-09-21T04:59:05.371Z,6.56
2022-09-21T05:02:13.427Z,6.54
2022-09-21T05:05:21.893Z,6.52
2022-09-21T05:08:45.567Z,6.54
2022-09-21T05:11:54.360Z,6.60
2022-09-21T05:15:02.709Z,6.60
2022-09-21T05:18:11.125Z,6.60
2022-09-21T05:21:19.482Z,6.60
2022-09-21T05:24:27.662Z,6.60
2022-09-21T05:27:35.432Z,6.60
2022-09-21T05:31:07.191Z,6.70
2022-09-21T05:34:37.030Z,6.76
2022-09-21T05:37:55.261Z,6.80
2022-09-21T05:41:04.884Z,6.82
2022-09-21T05:44:16.377Z,6.90
2022-09-21T05:47:36.835Z,7.00
2022-09-21T05:50:58.940Z,7.00
2022-09-21T05:54:17.200Z,7.10
2022-09-21T05:57:43.098Z,7.10
2022-09-21T06:01:07.613Z,7.16
2022-09-21T06:04:17.693Z,7.20
2022-09-21T06:07:25.651Z,7.20
2022-09-21T06:10:38.281Z,7.28
2022-09-21T06:13:46.050Z,7.30
2022-09-21T06:16:54.611Z,7.40
2022-09-21T06:20:03.192Z,7.50
2022-09-21T06:23:14.169Z,7.50
2022-09-21T06:26:22.195Z,7.60
2022-09-21T06:29:30.183Z,7.70
2022-09-21T06:32:37.944Z,7.76
2022-09-21T06:35:52.916Z,7.80
2022-09-21T06:39:01.018Z,7.90
2022-09-21T06:42:09.761Z,7.90
2022-09-21T06:45:17.725Z,7.90
2022-09-21T06:48:26.114Z,8.00
2022-09-21T06:51:34.217Z,8.10
2022-09-21T06:54:42.556Z,8.20
2022-09-21T06:57:51.780Z,8.30
2022-09-21T07:01:00.007Z,8.38
2022-09-21T07:04:09.701Z,8.40
2022-09-21T07:07:18.276Z,8.50
2022-09-21T07:10:26.591Z,8.60
2022-09-21T07:13:35.734Z,8.70
2022-09-21T07:16:43.722Z,8.80
2022-09-21T07:19:52.104Z,8.90
2022-09-21T07:23:00.611Z,9.00
2022-09-21T07:26:12.417Z,9.10
2022-09-21T07:29:21.069Z,9.20
2022-09-21T07:32:31.131Z,9.30
2022-09-21T07:35:39.535Z,9.50
2022-09-21T07:38:48.190Z,9.70
2022-09-21T07:41:57.516Z,9.90
2022-09-21T07:45:06.015Z,10.18
2022-09-21T07:48:14.325Z,10.42
2022-09-21T07:51:22.553Z,10.70
2022-09-21T07:54:30.344Z,10.94
2022-09-21T07:57:56.341Z,11.10
2022-09-21T08:01:08.354Z,11.20
2022-09-21T08:04:16.897Z,11.10
2022-09-21T08:07:25.102Z,11.00
2022-09-21T08:10:34.040Z,10.90
2022-09-21T08:13:41.841Z,10.80
2022-09-21T08:16:51.066Z,10.72
2022-09-21T08:19:58.798Z,10.70
2022-09-21T08:23:07.300Z,10.60
2022-09-21T08:26:19.926Z,10.60
2022-09-21T08:29:28.916Z,10.60
2022-09-21T08:32:50.627Z,10.70
2022-09-21T08:36:02.155Z,10.60
2022-09-21T08:39:12.962Z,10.70
2022-09-21T08:42:40.733Z,10.70
2022-09-21T08:45:49.565Z,10.80
2022-09-21T08:49:04.213Z,10.80
2022-09-21T08:52:17.229Z,11.04
2022-09-21T08:55:26.151Z,11.40
2022-09-21T08:58:38.254Z,11.70
2022-09-21T09:02:00.384Z,12.10
2022-09-21T09:05:28.193Z,12.20
2022-09-21T09:09:25.573Z,12.28
2022-09-21T09:12:52.853Z,12.12
2022-09-21T09:16:16.387Z,12.20
2022-09-21T09:19:34.674Z,12.30
2022-09-21T09:22:48.349Z,12.40
2022-09-21T09:26:03.590Z,12.56
2022-09-21T09:29:24.483Z,12.94
2022-09-21T09:32:40.503Z,13.20
2022-09-21T09:35:59.258Z,13.40
2022-09-21T09:39:14.027Z,13.64
2022-09-21T09:42:48.489Z,13.94
2022-09-21T09:46:13.576Z,14.30
2022-09-21T09:49:40.183Z,14.30
2022-09-21T09:52:48.933Z,14.20
2022-09-21T09:56:00.582Z,14.40
2022-09-21T09:59:17.461Z,14.74
2022-09-21T10:02:28.422Z,14.90
2022-09-21T10:05:39.217Z,15.06
2022-09-21T10:08:49.392Z,15.10
2022-09-21T10:12:00.153Z,15.00
2022-09-21T10:15:13.810Z,15.20
2022-09-21T10:18:28.477Z,15.44
2022-09-21T10:21:46.582Z,15.80
2022-09-21T10:25:01.805Z,15.70
2022-09-21T10:28:13.783Z,15.50
2022-09-21T10:31:28.516Z,15.20
2022-09-21T10:34:37.947Z,15.08
2022-09-21T10:37:48.797Z,15.28
2022-09-21T10:40:59.249Z,15.56
2022-09-21T10:44:06.284Z,15.40
2022-09-21T10:47:17.197Z,15.32
2022-09-21T10:50:38.895Z,15.70
2022-09-21T10:53:54.525Z,16.12
2022-09-21T10:57:09.496Z,16.00
2022-09-21T11:00:42.342Z,16.04
2022-09-21T11:04:01.186Z,16.14
2022-09-21T11:07:20.152Z,16.00
2022-09-21T11:10:39.706Z,15.90
2022-09-21T11:14:01.384Z,16.02
2022-09-21T11:17:18.523Z,16.30
2022-09-21T11:20:38.526Z,16.40
2022-09-21T11:24:03.350Z,16.20
2022-09-21T11:27:19.126Z,15.78
2022-09-21T11:30:30.835Z,16.00
2022-09-21T11:34:09.123Z,16.54
2022-09-21T11:37:35.876Z,16.96
2022-09-21T11:40:43.272Z,17.30
2022-09-21T11:44:28.301Z,17.72
2022-09-21T11:48:02.388Z,18.00
2022-09-21T11:51:38.528Z,17.90
2022-09-21T11:55:22.713Z,17.72
2022-09-21T11:58:59.508Z,17.86
2022-09-21T12:02:52.491Z,18.18
2022-09-21T12:06:37.538Z,18.62
2022-09-21T12:10:15.618Z,18.56
2022-09-21T12:13:35.270Z,18.04
2022-09-21T12:16:56.143Z,17.38
2022-09-21T12:20:15.773Z,16.70
2022-09-21T12:23:32.477Z,16.26
2022-09-21T12:27:13.632Z,15.94
2022-09-21T12:30:45.799Z,15.70
2022-09-21T12:33:59.649Z,15.60
2022-09-21T12:37:17.529Z,15.60
2022-09-21T12:40:34.998Z,15.60
2022-09-21T12:43:51.011Z,15.44
2022-09-21T12:47:10.997Z,15.30
2022-09-21T12:50:29.269Z,15.14
2022-09-21T12:53:42.003Z,15.12
2022-09-21T12:57:29.715Z,15.50
2022-09-21T13:00:50.915Z,15.92
2022-09-21T13:04:28.168Z,16.00
2022-09-21T13:08:09.572Z,16.20
2022-09-21T13:11:21.820Z,16.60
2022-09-21T13:14:36.478Z,16.80
2022-09-21T13:17:44.901Z,17.28
2022-09-21T13:20:55.673Z,17.50
2022-09-21T13:24:08.526Z,17.80
2022-09-21T13:27:19.430Z,18.04
2022-09-21T13:30:44.680Z,17.90
2022-09-21T13:34:36.934Z,17.40
2022-09-21T13:38:30.334Z,16.90
2022-09-21T13:41:59.342Z,16.90
2022-09-21T13:45:52.996Z,16.80
2022-09-21T13:49:03.634Z,16.50
2022-09-21T13:52:28.143Z,16.30
2022-09-21T13:55:39.700Z,16.50
2022-09-21T13:58:52.318Z,16.70
2022-09-21T14:02:00.924Z,16.50
2022-09-21T14:05:27.052Z,16.52
2022-09-21T14:08:43.173Z,16.60
2022-09-21T14:12:03.125Z,16.40
2022-09-21T14:15:45.015Z,16.00
2022-09-21T14:18:53.699Z,15.62
2022-09-21T14:22:38.513Z,15.54
2022-09-21T14:25:58.436Z,15.70
2022-09-21T14:29:22.464Z,15.80
2022-09-21T14:32:35.801Z,16.08
2022-09-21T14:35:49.193Z,16.12
2022-09-21T14:39:03.127Z,16.20
2022-09-21T14:42:19.549Z,16.30
2022-09-21T14:45:38.530Z,16.30
2022-09-21T14:49:00.388Z,16.30
2022-09-21T14:52:31.331Z,16.30
2022-09-21T14:56:05.105Z,16.20
2022-09-21T14:59:38.833Z,16.02
2022-09-21T15:02:52.228Z,15.90
2022-09-21T15:06:27.219Z,15.80
2022-09-21T15:10:15.717Z,15.62
2022-09-21T15:13:41.379Z,15.40
2022-09-21T15:16:52.964Z,15.16
2022-09-21T15:20:16.537Z,14.90
2022-09-21T15:23:27.031Z,14.70
2022-09-21T15:26:37.990Z,14.60
2022-09-21T15:29:51.210Z,14.48
2022-09-21T15:33:02.474Z,14.40
2022-09-21T15:36:11.333Z,14.30
2022-09-21T15:39:30.073Z,14.20
2022-09-21T15:42:59.778Z,14.10
2022-09-21T15:46:12.572Z,14.02
2022-09-21T15:49:25.074Z,14.00
2022-09-21T15:52:40.717Z,14.00
2022-09-21T15:55:52.703Z,13.90
2022-09-21T15:59:08.835Z,13.90
2022-09-21T16:02:25.408Z,13.80
2022-09-21T16:05:34.877Z,13.70
2022-09-21T16:08:44.220Z,13.70
2022-09-21T16:11:55.264Z,13.60
2022-09-21T16:15:16.881Z,13.50
2022-09-21T16:18:43.347Z,13.40
2022-09-21T16:22:04.125Z,13.30
2022-09-21T16:25:31.194Z,13.20
2022-09-21T16:28:45.550Z,13.10
2022-09-21T16:32:14.353Z,13.00
2022-09-21T16:35:31.712Z,12.90
2022-09-21T16:38:40.950Z,12.84
2022-09-21T16:42:00.193Z,12.80
2022-09-21T16:45:24.482Z,12.70
2022-09-21T16:48:34.303Z,12.60
2022-09-21T16:51:41.110Z,12.50
2022-09-21T16:54:50.486Z,12.44
2022-09-21T16:58:00.405Z,12.38
2022-09-21T17:01:10.052Z,12.30
2022-09-21T17:04:18.371Z,12.20
2022-09-21T17:07:26.895Z,12.20
2022-09-21T17:10:43.083Z,12.10
2022-09-21T17:13:51.862Z,12.00
2022-09-21T17:17:04.239Z,11.96
2022-09-21T17:20:21.870Z,11.90
2022-09-21T17:23:30.159Z,11.80
2022-09-21T17:26:38.769Z,11.80
2022-09-21T17:29:49.825Z,11.70
2022-09-21T17:32:59.125Z,11.70
2022-09-21T17:36:08.063Z,11.60
2022-09-21T17:39:16.280Z,11.56
2022-09-21T17:42:26.312Z,11.50
2022-09-21T17:45:45.135Z,11.40
2022-09-21T17:48:55.194Z,11.36
2022-09-21T17:52:28.001Z,11.30
2022-09-21T17:55:37.794Z,11.20
2022-09-21T17:58:57.427Z,11.10
2022-09-21T18:02:21.592Z,11.10
2022-09-21T18:05:32.379Z,11.00
2022-09-21T18:08:42.964Z,10.90
2022-09-21T18:12:38.356Z,10.90
2022-09-21T18:16:12.448Z,10.78
2022-09-21T18:19:42.695Z,10.70
2022-09-21T18:23:06.791Z,10.60
2022-09-21T18:26:17.689Z,10.50
2022-09-21T18:29:40.451Z,10.50
2022-09-21T18:33:13.009Z,10.46
2022-09-21T18:36:32.205Z,10.40
2022-09-21T18:39:53.638Z,10.30
2022-09-21T18:43:17.616Z,10.30
2022-09-21T18:46:35.488Z,10.20
2022-09-21T18:49:56.771Z,10.20
2022-09-21T18:53:19.897Z,10.12
2022-09-21T18:56:33.455Z,10.10
2022-09-21T18:59:43.046Z,10.02
2022-09-21T19:03:15.208Z,10.00
2022-09-21T19:06:47.271Z,10.00
2022-09-21T19:10:13.068Z,9.90
2022-09-21T19:13:43.241Z,9.90
2022-09-21T19:17:07.774Z,9.82
2022-09-21T19:20:41.895Z,9.80
2022-09-21T19:24:15.672Z,9.70
2022-09-21T19:27:39.316Z,9.70
2022-09-21T19:30:50.877Z,9.60
2022-09-21T19:33:59.389Z,9.58
2022-09-21T19:37:09.192Z,9.50
2022-09-21T19:40:17.126Z,9.50
2022-09-21T19:43:36.946Z,9.40
2022-09-21T19:46:49.392Z,9.34
2022-09-21T19:50:15.779Z,9.30
2022-09-21T19:53:42.760Z,9.24
2022-09-21T19:57:11.241Z,9.20
2022-09-21T20:00:22.906Z,9.20
2022-09-21T20:03:39.462Z,9.18
2022-09-21T20:06:56.443Z,9.20
2022-09-21T20:10:43.576Z,9.20
2022-09-21T20:14:17.832Z,9.20
2022-09-21T20:17:41.183Z,9.12
2022-09-21T20:20:49.816Z,9.10
2022-09-21T20:24:03.952Z,9.10
2022-09-21T20:27:28.196Z,9.06
2022-09-21T20:30:40.232Z,9.00
2022-09-21T20:33:48.624Z,8.90
2022-09-21T20:36:57.866Z,8.90
2022-09-21T20:40:07.073Z,8.80
2022-09-21T20:43:16.864Z,8.80
2022-09-21T20:46:25.038Z,8.80
2022-09-21T20:49:33.087Z,8.70
2022-09-21T20:52:42.355Z,8.70
2022-09-21T20:56:01.395Z,8.70
2022-09-21T20:59:09.534Z,8.60
2022-09-21T21:02:18.905Z,8.60
2022-09-21T21:05:27.719Z,8.50
2022-09-21T21:08:35.911Z,8.50
2022-09-21T21:11:44.024Z,8.50
2022-09-21T21:14:52.290Z,8.50
2022-09-21T21:18:00.527Z,8.50
2022-09-21T21:21:09.061Z,8.50
2022-09-21T21:24:37.954Z,8.42
2022-09-21T21:27:46.166Z,8.40
2022-09-21T21:31:03.097Z,8.40
2022-09-21T21:34:11.371Z,8.40
2022-09-21T21:37:20.649Z,8.30
2022-09-21T21:40:29.001Z,8.30
2022-09-21T21:43:38.785Z,8.30
2022-09-21T21:46:46.736Z,8.30
2022-09-21T21:49:55.518Z,8.30
2022-09-21T21:53:04.257Z,8.30
2022-09-21T21:56:16.197Z,8.30
2022-09-21T21:59:25.398Z,8.30
2022-09-21T22:02:34.404Z,8.20
2022-09-21T22:05:43.156Z,8.20
2022-09-21T22:08:52.563Z,8.10
2022-09-21T22:12:01.285Z,8.10
2022-09-21T22:15:12.075Z,8.00
2022-09-21T22:18:20.098Z,8.00
2022-09-21T22:21:31.246Z,7.94
2022-09-21T22:24:42.124Z,7.90
2022-09-21T22:27:50.646Z,7.90
2022-09-21T22:30:59.043Z,7.90
2022-09-21T22:34:07.811Z,7.90
2022-09-21T22:37:15.877Z,7.84
2022-09-21T22:40:24.776Z,7.80
2022-09-21T22:43:32.932Z,7.80
2022-09-21T22:46:42.481Z,7.70
2022-09-21T22:49:50.818Z,7.70
2022-09-21T22:52:59.413Z,7.68
2022-09-21T22:56:10.787Z,7.60
2022-09-21T22:59:18.945Z,7.60
2022-09-21T23:02:29.272Z,7.60
2022-09-21T23:05:37.956Z,7.60
2022-09-21T23:08:50.107Z,7.60
2022-09-21T23:11:58.527Z,7.60
2022-09-21T23:15:08.382Z,7.60
2022-09-21T23:18:14.998Z,7.66
2022-09-21T23:21:25.939Z,7.70
2022-09-21T23:24:34.426Z,7.70
2022-09-21T23:27:42.876Z,7.70
2022-09-21T23:30:51.611Z,7.70
2022-09-21T23:34:05.840Z,7.70
2022-09-21T23:37:14.377Z,7.68
2022-09-21T23:40:24.985Z,7.60
2022-09-21T23:43:33.835Z,7.50
2022-09-21T23:46:43.971Z,7.50
2022-09-21T23:49:52.636Z,7.50
2022-09-21T23:53:01.187Z,7.40
2022-09-21T23:56:12.871Z,7.30
2022-09-21T23:59:21.010Z,7.30
